Time;durP1;ratioP1;P1;durP2;ratioP2;P2;SDS_P1;SDS_P2;PMS_P1;PMS_P2;Temp;Humidity;BMP_temperature;BMP_pressure;BME280_temperature;BME280_humidity;BME280_pressure;Samples;Min_cycle;Max_cycle;Signal;HPM_P1;HPM_P2
2022/06/12 00:01:15;;;;;;;4.80;4.30;;;14.50;99.90;;;;;;5011760;28;20760;-59
2022/06/12 00:03:42;;;;;;;6.77;4.63;;;14.40;99.90;;;;;;5010024;28;20209;-59
2022/06/12 00:06:08;;;;;;;4.90;4.40;;;14.40;99.90;;;;;;5016187;28;20423;-58
2022/06/12 00:08:37;;;;;;;9.40;4.50;;;14.40;99.90;;;;;;5024854;28;20975;-60
2022/06/12 00:11:06;;;;;;;5.63;5.10;;;14.30;99.90;;;;;;4991279;28;20447;-59
2022/06/12 00:13:35;;;;;;;5.83;4.17;;;14.30;99.90;;;;;;5013512;28;20440;-57
2022/06/12 00:16:04;;;;;;;7.53;4.77;;;14.20;99.90;;;;;;5028407;28;20407;-59
2022/06/12 00:18:30;;;;;;;9.10;5.70;;;14.20;99.90;;;;;;5012435;28;20668;-57
2022/06/12 00:21:11;;;;;;;4.93;4.27;;;14.20;99.90;;;;;;5014343;28;20463;-58
2022/06/12 00:23:38;;;;;;;5.30;4.60;;;14.10;99.90;;;;;;5010721;28;20475;-59
2022/06/12 00:26:04;;;;;;;4.40;4.00;;;14.10;99.90;;;;;;5012357;28;20419;-60
2022/06/12 00:28:30;;;;;;;6.10;4.40;;;14.00;99.90;;;;;;5011781;28;20433;-58
2022/06/12 00:30:56;;;;;;;5.80;3.97;;;14.00;99.90;;;;;;5014106;28;20267;-59
2022/06/12 00:33:21;;;;;;;5.13;4.63;;;14.00;99.90;;;;;;5028337;28;20180;-59
2022/06/12 00:35:47;;;;;;;4.87;4.30;;;14.00;99.90;;;;;;5019366;28;20259;-60
2022/06/12 00:38:12;;;;;;;11.10;5.03;;;14.00;99.90;;;;;;5001789;28;20223;-60
2022/06/12 00:40:38;;;;;;;7.43;4.90;;;14.00;99.90;;;;;;5014731;28;20239;-59
2022/06/12 00:43:05;;;;;;;8.00;4.50;;;13.90;99.90;;;;;;5018018;28;20204;-59
2022/06/12 00:45:30;;;;;;;4.90;4.40;;;13.90;99.90;;;;;;4994593;28;20244;-59
2022/06/12 00:48:01;;;;;;;4.77;4.07;;;13.80;99.90;;;;;;4996028;28;20530;-59
2022/06/12 00:50:29;;;;;;;7.13;4.53;;;13.80;99.90;;;;;;5006093;28;20182;-59
2022/06/12 00:52:56;;;;;;;5.33;4.50;;;13.70;99.90;;;;;;5016654;28;20442;-60
2022/06/12 00:55:39;;;;;;;4.60;4.20;;;13.70;99.90;;;;;;5017081;28;20416;-59
2022/06/12 00:58:09;;;;;;;4.20;3.80;;;13.60;99.90;;;;;;5011402;28;20459;-59
2022/06/12 01:00:37;;;;;;;4.63;4.13;;;13.60;99.90;;;;;;5018556;28;20446;-59
2022/06/12 01:03:04;;;;;;;5.03;4.47;;;13.50;99.90;;;;;;5011810;28;20536;-59
2022/06/12 01:08:16;;;;;;;5.67;4.23;;;13.50;99.90;;;;;;5015787;28;20461;-59
2022/06/12 01:10:46;;;;;;;4.20;3.80;;;13.40;99.90;;;;;;4992274;28;20413;-63
2022/06/12 01:13:19;;;;;;;6.43;4.50;;;13.40;99.90;;;;;;4993787;28;20929;-59
2022/06/12 01:16:09;;;;;;;5.90;4.37;;;13.40;99.90;;;;;;5005106;28;20440;-59
2022/06/12 01:18:41;;;;;;;5.90;4.30;;;13.40;99.90;;;;;;5004341;28;20458;-59
2022/06/12 01:21:28;;;;;;;4.60;4.20;;;13.40;99.90;;;;;;4987586;28;20442;-60
2022/06/12 01:24:14;;;;;;;5.17;4.20;;;13.30;99.90;;;;;;5015699;28;20462;-61
2022/06/12 01:26:42;;;;;;;9.23;4.77;;;13.30;99.90;;;;;;5007558;28;20586;-59
2022/06/12 01:29:14;;;;;;;6.23;4.83;;;13.30;99.90;;;;;;4994111;28;20964;-60
2022/06/12 01:32:14;;;;;;;7.13;4.77;;;13.30;99.90;;;;;;4997903;28;20403;-60
2022/06/12 01:35:04;;;;;;;4.80;4.40;;;13.20;99.90;;;;;;5008455;28;20692;-59
2022/06/12 01:37:39;;;;;;;6.73;4.30;;;13.20;99.90;;;;;;5007022;28;20462;-60
2022/06/12 01:40:12;;;;;;;6.50;4.90;;;13.20;99.90;;;;;;5006602;28;20501;-60
2022/06/12 01:43:28;;;;;;;6.97;4.50;;;13.10;99.90;;;;;;4973766;28;20521;-60
2022/06/12 01:46:15;;;;;;;4.47;4.07;;;13.10;99.90;;;;;;5006536;28;20903;-57
2022/06/12 01:48:46;;;;;;;3.97;3.67;;;13.00;99.90;;;;;;5017013;28;20439;-59
2022/06/12 01:51:32;;;;;;;4.60;4.07;;;13.00;99.90;;;;;;4992966;28;20466;-59
2022/06/12 01:54:06;;;;;;;8.23;3.97;;;13.00;99.90;;;;;;4990947;28;20975;-66
2022/06/12 01:56:44;;;;;;;6.70;4.30;;;13.00;99.90;;;;;;5008612;28;20419;-58
2022/06/12 01:59:26;;;;;;;5.77;4.10;;;12.90;99.90;;;;;;5010598;28;20443;-59
2022/06/12 02:02:00;;;;;;;6.00;4.40;;;12.90;99.90;;;;;;5008186;28;20434;-59
2022/06/12 02:04:38;;;;;;;5.83;4.20;;;12.90;99.90;;;;;;5004944;28;20482;-59
2022/06/12 02:07:19;;;;;;;12.93;4.70;;;12.80;99.90;;;;;;5004066;28;20815;-59
2022/06/12 02:09:49;;;;;;;4.47;4.07;;;12.80;99.90;;;;;;5025198;28;20409;-58
2022/06/12 02:15:25;;;;;;;5.73;4.50;;;12.80;99.90;;;;;;5005510;28;20461;-59
2022/06/12 02:18:01;;;;;;;5.40;4.43;;;12.70;99.90;;;;;;5012044;28;20450;-59
2022/06/12 02:20:38;;;;;;;4.53;4.10;;;12.70;99.90;;;;;;4997976;28;20443;-59
2022/06/12 02:23:11;;;;;;;4.10;3.80;;;12.70;99.90;;;;;;5010103;28;20982;-59
2022/06/12 02:25:41;;;;;;;5.80;4.73;;;12.70;99.90;;;;;;5005183;28;20933;-58
2022/06/12 02:28:11;;;;;;;5.37;4.40;;;12.60;99.90;;;;;;5008743;28;20429;-59
2022/06/12 02:30:40;;;;;;;6.20;4.20;;;12.60;99.90;;;;;;5010229;28;20404;-59
2022/06/12 02:33:21;;;;;;;7.10;4.30;;;12.60;99.90;;;;;;4995243;28;20439;-59
2022/06/12 02:36:12;;;;;;;4.53;4.13;;;12.50;99.90;;;;;;5006787;28;20806;-59
2022/06/12 02:38:40;;;;;;;6.03;4.33;;;12.50;99.90;;;;;;5018514;28;20787;-59
2022/06/12 02:41:25;;;;;;;4.90;4.40;;;12.50;99.90;;;;;;5015593;28;20454;-59
2022/06/12 02:43:57;;;;;;;5.07;4.03;;;12.50;99.90;;;;;;5010840;28;20486;-59
2022/06/12 02:46:36;;;;;;;7.43;4.63;;;12.40;99.90;;;;;;5015155;28;20471;-59
2022/06/12 02:49:03;;;;;;;5.63;4.27;;;12.40;99.90;;;;;;5000046;28;20438;-58
2022/06/12 02:51:47;;;;;;;6.70;4.43;;;12.40;99.90;;;;;;4984511;28;20941;-59
2022/06/12 02:54:47;;;;;;;6.23;4.60;;;12.30;99.90;;;;;;5011139;28;20435;-59
2022/06/12 02:57:40;;;;;;;5.83;4.50;;;12.30;99.90;;;;;;4999675;28;20451;-59
2022/06/12 03:00:16;;;;;;;5.17;4.17;;;12.30;99.90;;;;;;5009136;28;20477;-59
2022/06/12 03:02:49;;;;;;;6.70;4.67;;;12.30;99.90;;;;;;5007052;28;20466;-59
2022/06/12 03:05:32;;;;;;;4.63;4.10;;;12.20;99.90;;;;;;4988035;28;20467;-59
2022/06/12 03:08:02;;;;;;;8.40;4.90;;;12.20;99.90;;;;;;5010063;28;20439;-59
2022/06/12 03:10:35;;;;;;;4.10;3.70;;;12.20;99.90;;;;;;5005459;28;20462;-59
2022/06/12 03:13:03;;;;;;;4.73;4.23;;;12.20;99.90;;;;;;4991215;28;20913;-59
2022/06/12 03:15:51;;;;;;;5.53;3.93;;;12.10;99.90;;;;;;5007719;28;20435;-58
2022/06/12 03:18:33;;;;;;;4.70;4.10;;;12.10;99.90;;;;;;4995718;28;20450;-59
2022/06/12 03:21:22;;;;;;;4.70;4.20;;;12.10;99.90;;;;;;5012836;28;20528;-59
2022/06/12 03:24:06;;;;;;;5.27;4.77;;;12.10;99.90;;;;;;5020015;28;20467;-59
2022/06/12 03:26:51;;;;;;;4.57;4.17;;;12.00;99.90;;;;;;5020113;28;20575;-59
2022/06/12 03:29:43;;;;;;;11.53;4.50;;;12.00;99.90;;;;;;5026463;28;20450;-59
2022/06/12 03:32:23;;;;;;;6.73;4.60;;;12.00;99.90;;;;;;5010141;28;20435;-59
2022/06/12 03:35:15;;;;;;;4.60;4.20;;;12.00;99.90;;;;;;4992367;28;20795;-57
2022/06/12 03:37:51;;;;;;;4.37;3.97;;;11.90;99.90;;;;;;5003801;28;20561;-58
2022/06/12 03:40:24;;;;;;;5.13;4.63;;;11.90;99.90;;;;;;4997776;28;21017;-58
2022/06/12 03:43:05;;;;;;;4.57;3.90;;;11.90;99.90;;;;;;4998108;28;20498;-59
2022/06/12 03:46:10;;;;;;;7.50;5.17;;;11.90;99.90;;;;;;5016777;28;20442;-58
2022/06/12 03:49:33;;;;;;;6.40;4.40;;;11.90;99.90;;;;;;5010550;28;21146;-60
2022/06/12 03:52:28;;;;;;;5.63;4.07;;;11.90;99.90;;;;;;4943182;29;20430;-58
2022/06/12 03:55:08;;;;;;;5.47;4.47;;;11.90;99.90;;;;;;4909753;28;20832;-59
2022/06/12 03:57:54;;;;;;;4.53;4.13;;;11.90;99.90;;;;;;4986030;28;20517;-59
2022/06/12 04:00:31;;;;;;;4.43;4.03;;;11.90;99.90;;;;;;5014823;28;20430;-59
2022/06/12 04:03:03;;;;;;;4.70;4.20;;;12.00;99.90;;;;;;5005454;28;20471;-59
2022/06/12 04:05:41;;;;;;;6.07;4.17;;;12.00;99.90;;;;;;5006230;28;21021;-60
2022/06/12 04:08:11;;;;;;;4.40;4.00;;;12.00;99.90;;;;;;4999918;28;20902;-60
2022/06/12 04:10:39;;;;;;;6.77;4.47;;;12.10;99.90;;;;;;5005344;28;20481;-59
2022/06/12 04:13:09;;;;;;;6.20;4.00;;;12.10;99.90;;;;;;5018206;28;21707;-59
2022/06/12 04:15:39;;;;;;;6.20;4.50;;;12.10;99.90;;;;;;4992528;28;20761;-58
2022/06/12 04:18:05;;;;;;;5.73;4.73;;;12.10;99.90;;;;;;5005541;28;20976;-58
2022/06/12 04:20:50;;;;;;;7.23;5.17;;;12.10;99.90;;;;;;5012720;28;20450;-59
2022/06/12 04:23:38;;;;;;;6.23;4.90;;;12.10;99.90;;;;;;5011566;28;20262;-59
2022/06/12 04:26:31;;;;;;;5.30;4.50;;;12.20;99.90;;;;;;5007023;28;20570;-59
2022/06/12 04:29:03;;;;;;;6.73;4.33;;;12.20;99.90;;;;;;5014966;28;20430;-59
2022/06/12 04:31:32;;;;;;;5.57;4.30;;;12.20;99.90;;;;;;5023725;28;20431;-59
2022/06/12 04:34:19;;;;;;;5.63;4.63;;;12.30;99.90;;;;;;5007699;28;20453;-59
2022/06/12 04:36:48;;;;;;;6.10;4.33;;;12.30;99.90;;;;;;5020343;28;20442;-59
2022/06/12 04:39:16;;;;;;;5.87;4.20;;;12.30;99.90;;;;;;5003011;28;20436;-59
2022/06/12 04:41:43;;;;;;;4.63;4.23;;;12.30;99.90;;;;;;5008999;28;20443;-59
2022/06/12 04:44:09;;;;;;;5.53;4.57;;;12.40;99.90;;;;;;5009667;28;20475;-61
2022/06/12 04:46:37;;;;;;;5.73;4.17;;;12.40;99.90;;;;;;5011225;28;20915;-59
2022/06/12 04:49:03;;;;;;;5.67;5.07;;;12.50;99.90;;;;;;5004789;28;20734;-59
2022/06/12 04:51:30;;;;;;;4.70;4.30;;;12.60;99.90;;;;;;5005795;28;20856;-59
2022/06/12 04:53:56;;;;;;;5.40;4.90;;;12.60;99.90;;;;;;5001929;28;20438;-59
2022/06/12 04:56:24;;;;;;;5.43;4.93;;;12.70;99.90;;;;;;5005363;28;20934;-59
2022/06/12 04:58:51;;;;;;;5.10;4.60;;;12.70;99.90;;;;;;5019109;28;20455;-59
2022/06/12 05:01:18;;;;;;;7.97;5.53;;;12.80;99.90;;;;;;5008115;28;20473;-58
2022/06/12 05:03:43;;;;;;;5.43;4.93;;;12.90;99.90;;;;;;5008863;28;20545;-59
2022/06/12 05:06:13;;;;;;;5.40;4.90;;;12.90;99.90;;;;;;5005486;28;21149;-60
2022/06/12 05:08:39;;;;;;;6.30;5.60;;;13.00;99.90;;;;;;5008509;28;20192;-59
2022/06/12 05:11:04;;;;;;;6.03;4.77;;;13.00;99.90;;;;;;5020386;28;20437;-59
2022/06/12 05:13:30;;;;;;;5.53;4.50;;;13.10;99.90;;;;;;5017326;28;20920;-60
2022/06/12 05:15:56;;;;;;;7.80;4.63;;;13.20;99.90;;;;;;5009283;28;20646;-59
2022/06/12 05:18:22;;;;;;;5.23;4.73;;;13.20;99.90;;;;;;5003073;28;20201;-59
2022/06/12 05:20:48;;;;;;;6.50;4.73;;;13.30;99.90;;;;;;5008580;28;20941;-60
2022/06/12 05:23:14;;;;;;;7.10;4.70;;;13.30;99.90;;;;;;5014059;28;20278;-60
2022/06/12 05:25:42;;;;;;;5.13;4.70;;;13.40;99.90;;;;;;5018971;28;20507;-59
2022/06/12 05:28:07;;;;;;;5.87;4.60;;;13.40;99.90;;;;;;5028280;28;20184;-59
2022/06/12 05:30:35;;;;;;;6.60;4.50;;;13.50;99.90;;;;;;5019565;28;21001;-59
2022/06/12 05:33:01;;;;;;;4.53;4.03;;;13.60;99.90;;;;;;5011050;28;20212;-59
2022/06/12 05:35:28;;;;;;;8.67;5.00;;;13.70;99.90;;;;;;5013105;28;20441;-59
2022/06/12 05:37:54;;;;;;;4.97;4.50;;;13.70;99.90;;;;;;5013989;28;20533;-60
2022/06/12 05:40:25;;;;;;;4.77;3.90;;;13.80;99.90;;;;;;5008647;28;20415;-60
2022/06/12 05:42:51;;;;;;;5.10;3.97;;;13.90;99.90;;;;;;4991516;28;20682;-59
2022/06/12 05:45:20;;;;;;;6.93;4.43;;;14.00;99.90;;;;;;5002780;28;20435;-59
2022/06/12 05:47:51;;;;;;;4.20;3.80;;;14.10;99.90;;;;;;5011909;28;20200;-59
2022/06/12 05:50:18;;;;;;;4.10;3.80;;;14.20;99.90;;;;;;5012896;28;20796;-59
2022/06/12 05:52:44;;;;;;;5.40;4.30;;;14.30;99.90;;;;;;4992223;28;20435;-60
2022/06/12 05:55:11;;;;;;;4.63;4.10;;;14.40;99.90;;;;;;5010450;28;20412;-60
2022/06/12 05:57:37;;;;;;;4.70;4.20;;;14.50;99.90;;;;;;4990539;28;20774;-59
2022/06/12 06:00:07;;;;;;;4.50;4.10;;;14.60;99.90;;;;;;5008251;28;20522;-60
2022/06/12 06:02:34;;;;;;;4.57;3.97;;;14.60;99.90;;;;;;4995801;28;20981;-60
2022/06/12 06:05:00;;;;;;;4.70;3.90;;;14.70;99.90;;;;;;5016462;28;20416;-60
2022/06/12 06:07:27;;;;;;;3.60;3.30;;;14.80;99.90;;;;;;5017323;28;20818;-60
2022/06/12 06:09:53;;;;;;;4.10;3.70;;;14.90;99.90;;;;;;5013062;28;20408;-59
2022/06/12 06:12:18;;;;;;;5.57;4.47;;;15.00;99.90;;;;;;4992681;28;21197;-59
2022/06/12 06:14:44;;;;;;;4.57;4.10;;;15.10;99.90;;;;;;5007978;28;20730;-59
2022/06/12 06:17:10;;;;;;;4.70;3.43;;;15.30;99.90;;;;;;5004684;28;20208;-59
2022/06/12 06:19:35;;;;;;;4.10;3.63;;;15.40;99.90;;;;;;5008255;28;20541;-60
2022/06/12 06:22:01;;;;;;;3.53;3.10;;;15.50;99.90;;;;;;5011831;28;20263;-60
2022/06/12 06:24:27;;;;;;;4.00;3.60;;;15.60;97.60;;;;;;5009207;28;20204;-60
2022/06/12 06:26:52;;;;;;;5.40;3.60;;;15.60;98.40;;;;;;5016099;28;20604;-60
2022/06/12 06:29:18;;;;;;;6.33;3.60;;;15.80;98.10;;;;;;5002513;28;20178;-59
2022/06/12 06:31:44;;;;;;;4.13;3.27;;;15.90;97.50;;;;;;5009592;28;20233;-60
2022/06/12 06:34:10;;;;;;;4.23;3.80;;;15.90;96.20;;;;;;5013598;28;20472;-60
2022/06/12 06:36:36;;;;;;;4.00;3.60;;;16.10;96.60;;;;;;5002765;28;20438;-60
2022/06/12 06:39:02;;;;;;;4.53;3.80;;;16.10;96.20;;;;;;4998070;28;20184;-60
2022/06/12 06:41:28;;;;;;;3.80;3.50;;;16.30;95.70;;;;;;5009555;28;20680;-60
2022/06/12 06:46:39;;;;;;;4.40;4.03;;;16.60;95.10;;;;;;4999921;28;20435;-60
2022/06/12 06:49:05;;;;;;;4.90;3.90;;;16.70;94.10;;;;;;5014372;28;21129;-59
2022/06/12 06:51:31;;;;;;;3.47;3.20;;;16.80;93.00;;;;;;5006214;28;20423;-60
2022/06/12 06:53:58;;;;;;;5.17;3.60;;;16.90;91.90;;;;;;4997648;28;20431;-60
2022/06/12 06:56:24;;;;;;;4.10;3.70;;;17.00;92.30;;;;;;5005536;28;21005;-60
2022/06/12 06:58:50;;;;;;;5.53;3.50;;;17.10;91.90;;;;;;5006596;28;20450;-60
2022/06/12 07:01:16;;;;;;;3.87;3.00;;;17.30;88.30;;;;;;5008156;28;20443;-59
2022/06/12 07:03:43;;;;;;;4.23;3.83;;;17.40;84.70;;;;;;5008353;28;20467;-60
2022/06/12 07:06:14;;;;;;;4.03;3.63;;;17.50;83.40;;;;;;4999128;28;20165;-60
2022/06/12 07:08:40;;;;;;;3.70;3.40;;;17.60;86.10;;;;;;5012264;28;20433;-59
2022/06/12 07:11:06;;;;;;;5.77;3.83;;;17.80;83.30;;;;;;5006285;28;20939;-60
2022/06/12 07:13:32;;;;;;;3.90;3.60;;;17.90;78.60;;;;;;5008377;28;20435;-59
2022/06/12 07:15:57;;;;;;;3.07;2.87;;;18.00;77.80;;;;;;5006556;28;20214;-59
2022/06/12 07:18:23;;;;;;;3.90;3.60;;;18.20;77.30;;;;;;5004908;28;20224;-59
2022/06/12 07:20:55;;;;;;;4.63;3.13;;;18.30;77.50;;;;;;5003966;28;20177;-59
2022/06/12 07:23:23;;;;;;;3.30;3.10;;;18.40;76.00;;;;;;5011658;28;20211;-59
2022/06/12 07:25:55;;;;;;;4.17;2.90;;;18.50;73.50;;;;;;5001668;28;20422;-59
2022/06/12 07:28:22;;;;;;;6.13;3.00;;;18.70;70.50;;;;;;4994188;28;20443;-59
2022/06/12 07:30:50;;;;;;;3.70;2.63;;;18.80;66.80;;;;;;5007847;28;20423;-60
2022/06/12 07:33:15;;;;;;;6.13;3.13;;;18.90;65.50;;;;;;5003388;28;20494;-59
2022/06/12 07:35:43;;;;;;;3.57;2.90;;;19.00;64.30;;;;;;5011195;28;20955;-59
2022/06/12 07:38:10;;;;;;;3.13;2.90;;;19.10;63.90;;;;;;5006883;28;20298;-59
2022/06/12 07:40:42;;;;;;;3.40;3.10;;;19.20;63.50;;;;;;5009230;28;20955;-59
2022/06/12 07:43:08;;;;;;;3.23;3.03;;;19.40;63.60;;;;;;5011341;28;20497;-59
2022/06/12 07:45:35;;;;;;;2.80;2.50;;;19.50;63.20;;;;;;5002295;28;20427;-60
2022/06/12 07:48:01;;;;;;;3.20;2.90;;;19.70;62.50;;;;;;5010222;28;20454;-61
2022/06/12 07:50:27;;;;;;;3.00;2.70;;;19.80;61.60;;;;;;5000976;28;20844;-60
2022/06/12 07:52:52;;;;;;;4.40;2.90;;;19.90;60.60;;;;;;4995121;28;20190;-59
2022/06/12 07:55:19;;;;;;;4.40;3.03;;;20.00;59.80;;;;;;4996899;28;20180;-60
2022/06/12 07:57:46;;;;;;;3.53;2.70;;;20.20;59.90;;;;;;5009460;28;20195;-59
2022/06/12 08:00:13;;;;;;;7.07;5.50;;;20.30;60.30;;;;;;5003909;28;20447;-60
2022/06/12 08:02:43;;;;;;;3.40;3.10;;;20.40;61.30;;;;;;5003624;28;20462;-60
2022/06/12 08:05:10;;;;;;;3.23;2.93;;;20.60;61.30;;;;;;5010845;28;20788;-60
2022/06/12 08:07:35;;;;;;;3.57;2.80;;;20.80;60.60;;;;;;5012440;28;20960;-59
2022/06/12 08:10:03;;;;;;;3.90;3.00;;;20.90;59.80;;;;;;5019936;28;20438;-59
2022/06/12 08:12:31;;;;;;;3.80;2.97;;;21.00;60.70;;;;;;5004427;28;20748;-59
2022/06/12 08:14:57;;;;;;;5.30;2.80;;;21.20;58.80;;;;;;5000341;28;20443;-59
2022/06/12 08:17:23;;;;;;;3.20;3.00;;;21.40;57.60;;;;;;5011577;28;20459;-59
2022/06/12 08:22:33;;;;;;;3.03;2.83;;;21.60;58.70;;;;;;5011831;28;20615;-59
2022/06/12 08:24:59;;;;;;;3.20;2.90;;;21.80;57.50;;;;;;5011390;28;20423;-59
2022/06/12 08:27:25;;;;;;;2.97;2.67;;;21.80;57.70;;;;;;4998882;28;20459;-61
2022/06/12 08:29:51;;;;;;;3.93;2.43;;;21.90;57.60;;;;;;5009212;28;20173;-60
2022/06/12 08:32:20;;;;;;;2.47;2.27;;;22.10;56.10;;;;;;5002897;28;20212;-60
2022/06/12 08:34:58;;;;;;;3.00;2.80;;;22.20;55.20;;;;;;5003872;28;20782;-60
2022/06/12 08:37:31;;;;;;;2.90;2.70;;;22.30;55.00;;;;;;5005006;28;20550;-62
2022/06/12 08:39:58;;;;;;;3.17;2.37;;;22.50;55.60;;;;;;5004668;28;20432;-61
2022/06/12 08:42:34;;;;;;;4.53;2.60;;;22.60;54.40;;;;;;5003064;28;20467;-60
2022/06/12 08:45:19;;;;;;;3.23;2.50;;;22.60;53.30;;;;;;5015960;28;20525;-60
2022/06/12 08:48:00;;;;;;;3.07;2.60;;;22.80;54.30;;;;;;4995739;28;20909;-61
2022/06/12 08:50:42;;;;;;;8.17;2.70;;;22.80;52.00;;;;;;5005568;28;20801;-61
2022/06/12 08:53:17;;;;;;;2.67;2.20;;;22.80;52.50;;;;;;5011513;28;20444;-62
2022/06/12 08:55:53;;;;;;;3.80;2.30;;;22.90;52.80;;;;;;5002899;28;20423;-60
2022/06/12 08:58:41;;;;;;;7.70;5.57;;;23.00;52.50;;;;;;4991700;28;20526;-60
2022/06/12 09:01:08;;;;;;;3.40;2.83;;;23.10;52.50;;;;;;5001594;28;20466;-61
2022/06/12 09:03:40;;;;;;;3.90;2.50;;;23.30;52.10;;;;;;5009116;28;20458;-60
2022/06/12 09:06:17;;;;;;;2.60;2.40;;;23.50;51.70;;;;;;5006393;28;20432;-61
2022/06/12 09:09:16;;;;;;;6.40;2.40;;;23.50;51.00;;;;;;4993340;28;20491;-58
2022/06/12 09:11:54;;;;;;;2.97;2.67;;;23.60;49.10;;;;;;5014757;28;20611;-59
2022/06/12 09:14:35;;;;;;;2.93;2.17;;;23.70;49.50;;;;;;4997750;28;20439;-61
2022/06/12 09:17:07;;;;;;;4.50;2.87;;;23.80;48.80;;;;;;5003677;28;20480;-59
2022/06/12 09:19:45;;;;;;;3.23;2.50;;;23.90;50.40;;;;;;5016594;28;20946;-59
2022/06/12 09:22:20;;;;;;;2.60;2.40;;;24.00;48.70;;;;;;4999120;28;20810;-59
2022/06/12 09:25:03;;;;;;;2.63;2.40;;;24.10;48.20;;;;;;4994950;28;20513;-59
2022/06/12 09:27:45;;;;;;;3.63;2.53;;;24.20;48.60;;;;;;5007681;28;20469;-60
2022/06/12 09:30:24;;;;;;;3.20;2.90;;;24.30;48.50;;;;;;5005721;28;20424;-59
2022/06/12 09:32:59;;;;;;;4.47;2.47;;;24.50;48.80;;;;;;5006632;28;20942;-59
2022/06/12 09:35:40;;;;;;;3.00;2.70;;;24.60;46.80;;;;;;5021773;28;20414;-59
2022/06/12 09:38:21;;;;;;;2.80;2.50;;;24.60;48.90;;;;;;5008994;28;20502;-58
2022/06/12 09:40:49;;;;;;;2.50;2.30;;;24.80;49.80;;;;;;5012988;28;20439;-59
2022/06/12 09:43:33;;;;;;;7.83;2.60;;;24.90;47.50;;;;;;5015980;28;20468;-59
2022/06/12 09:46:14;;;;;;;2.53;2.20;;;25.00;47.00;;;;;;5004854;28;20435;-59
2022/06/12 09:49:17;;;;;;;4.93;2.70;;;25.10;48.40;;;;;;5008295;28;20450;-60
2022/06/12 09:51:55;;;;;;;4.57;2.40;;;25.30;48.40;;;;;;4990248;28;20433;-60
2022/06/12 09:54:26;;;;;;;3.10;2.80;;;25.40;48.50;;;;;;4989255;28;20517;-59
2022/06/12 09:57:22;;;;;;;3.60;2.50;;;25.60;48.20;;;;;;5008194;28;20445;-60
2022/06/12 09:59:59;;;;;;;3.17;2.70;;;25.60;48.30;;;;;;4996221;28;20435;-59
2022/06/12 10:02:34;;;;;;;3.73;2.50;;;25.70;47.80;;;;;;5021172;28;20465;-61
2022/06/12 10:05:16;;;;;;;2.70;2.50;;;25.80;47.00;;;;;;4998534;28;20438;-60
2022/06/12 10:07:52;;;;;;;3.10;2.63;;;25.90;47.00;;;;;;5004574;28;20447;-59
2022/06/12 10:10:32;;;;;;;3.00;2.37;;;26.00;47.20;;;;;;5007734;28;20438;-59
2022/06/12 10:13:04;;;;;;;5.50;2.87;;;26.10;48.00;;;;;;4996624;28;20893;-59
2022/06/12 10:15:38;;;;;;;2.73;2.37;;;26.20;48.10;;;;;;5008201;28;20470;-60
2022/06/12 10:18:12;;;;;;;3.23;2.80;;;26.20;47.00;;;;;;5001843;28;20855;-60
2022/06/12 10:20:43;;;;;;;3.40;3.00;;;26.20;47.00;;;;;;4995482;28;21237;-60
2022/06/12 10:23:09;;;;;;;2.93;2.60;;;26.30;45.60;;;;;;4997515;28;20474;-60
2022/06/12 10:25:43;;;;;;;8.53;2.43;;;26.30;44.10;;;;;;4995477;28;20501;-60
2022/06/12 10:28:31;;;;;;;5.20;2.40;;;26.20;44.40;;;;;;5004097;28;20191;-60
2022/06/12 10:31:08;;;;;;;8.13;2.13;;;26.20;44.20;;;;;;5012312;28;20437;-60
2022/06/12 10:33:47;;;;;;;2.70;2.50;;;26.20;44.90;;;;;;5009981;28;20521;-60
2022/06/12 10:36:18;;;;;;;3.40;2.20;;;26.30;43.60;;;;;;5015649;28;20487;-61
2022/06/12 10:38:44;;;;;;;2.87;2.53;;;26.30;43.70;;;;;;5016439;28;20470;-61
2022/06/12 10:41:26;;;;;;;2.13;2.00;;;26.30;44.50;;;;;;4987983;28;20545;-61
2022/06/12 10:43:56;;;;;;;4.43;2.20;;;26.40;43.10;;;;;;5010345;28;20199;-62
2022/06/12 10:46:24;;;;;;;3.30;2.80;;;26.50;44.10;;;;;;5019411;28;20872;-60
2022/06/12 10:48:58;;;;;;;10.27;2.23;;;26.70;44.30;;;;;;4994645;28;20429;-60
2022/06/12 10:51:45;;;;;;;4.50;2.50;;;26.90;43.50;;;;;;5003793;28;20419;-61
2022/06/12 10:54:22;;;;;;;2.50;2.30;;;27.00;42.40;;;;;;5004031;28;20441;-62
2022/06/12 10:57:21;;;;;;;4.10;1.80;;;27.00;41.60;;;;;;5003505;28;20844;-60
2022/06/12 10:59:52;;;;;;;3.33;2.23;;;27.10;41.80;;;;;;5009203;28;20466;-61
2022/06/12 11:02:39;;;;;;;2.40;2.07;;;27.20;41.10;;;;;;5001708;28;20206;-61
2022/06/12 11:05:23;;;;;;;3.80;2.73;;;27.20;40.90;;;;;;4980660;28;20673;-61
2022/06/12 11:08:02;;;;;;;2.07;1.90;;;27.30;40.60;;;;;;5017684;28;20685;-61
2022/06/12 11:10:52;;;;;;;2.90;2.67;;;27.30;41.10;;;;;;5008080;28;20183;-61
2022/06/12 11:13:32;;;;;;;3.20;2.50;;;27.40;40.80;;;;;;5009424;28;20172;-61
2022/06/12 11:16:33;;;;;;;4.73;2.20;;;27.60;41.80;;;;;;4996201;28;20187;-59
2022/06/12 11:19:14;;;;;;;2.73;2.27;;;27.80;41.90;;;;;;4998179;28;20198;-60
2022/06/12 11:22:00;;;;;;;3.03;2.27;;;28.00;41.80;;;;;;5008613;28;20242;-62
2022/06/12 11:24:34;;;;;;;5.00;3.67;;;28.10;39.40;;;;;;5004934;28;20203;-60
2022/06/12 11:27:34;;;;;;;4.90;2.60;;;28.10;38.60;;;;;;4997035;28;20253;-60
2022/06/12 11:30:21;;;;;;;2.70;1.80;;;28.20;40.40;;;;;;5001741;28;20259;-62
2022/06/12 11:33:02;;;;;;;2.10;2.00;;;28.20;38.50;;;;;;5012510;28;20258;-60
2022/06/12 11:35:37;;;;;;;3.10;2.47;;;28.20;38.30;;;;;;4992434;28;20196;-60
2022/06/12 11:38:06;;;;;;;2.30;2.10;;;28.30;39.40;;;;;;5010401;28;20211;-61
2022/06/12 11:40:40;;;;;;;2.33;1.90;;;28.40;38.80;;;;;;5006346;28;20192;-59
2022/06/12 11:43:14;;;;;;;2.30;2.10;;;28.60;38.10;;;;;;5017252;28;20524;-60
2022/06/12 11:45:51;;;;;;;4.93;2.60;;;28.60;37.50;;;;;;4999545;28;20187;-60
2022/06/12 11:48:29;;;;;;;4.73;2.17;;;28.70;38.10;;;;;;5008552;28;20191;-60
2022/06/12 11:51:03;;;;;;;2.30;2.10;;;28.70;37.20;;;;;;5008724;28;20207;-61
2022/06/12 11:53:52;;;;;;;3.65;2.03;;;28.70;37.50;;;;;;4998174;28;20240;-59
2022/06/12 11:56:35;;;;;;;2.15;2.00;;;28.70;39.50;;;;;;4988387;28;20196;-60
2022/06/12 11:59:22;;;;;;;3.35;1.95;;;29.00;38.90;;;;;;5002411;28;20661;-60
2022/06/12 12:01:57;;;;;;;3.22;2.17;;;29.20;38.70;;;;;;5011585;28;20574;-61
2022/06/12 12:04:25;;;;;;;2.75;2.13;;;29.30;39.30;;;;;;5019924;28;20206;-61
2022/06/12 12:07:23;;;;;;;4.07;2.30;;;29.30;37.30;;;;;;5005062;28;20206;-61
2022/06/12 12:09:57;;;;;;;2.33;2.13;;;29.30;36.70;;;;;;5012397;28;20161;-61
2022/06/12 12:12:27;;;;;;;1.90;1.80;;;29.20;38.70;;;;;;5012239;28;20175;-61
2022/06/12 12:14:55;;;;;;;3.90;2.38;;;29.40;40.30;;;;;;5005308;28;20175;-61
2022/06/12 12:17:42;;;;;;;1.83;1.60;;;29.60;39.00;;;;;;5008486;28;20196;-61
2022/06/12 12:20:27;;;;;;;2.20;2.08;;;29.60;37.50;;;;;;4996594;28;20187;-61
2022/06/12 12:23:09;;;;;;;2.20;1.95;;;29.60;38.50;;;;;;5006548;28;20200;-60
2022/06/12 12:25:56;;;;;;;3.72;2.58;;;29.80;39.10;;;;;;5010640;28;20230;-61
2022/06/12 12:28:38;;;;;;;2.50;2.13;;;29.90;36.60;;;;;;5003767;28;20701;-61
2022/06/12 12:31:08;;;;;;;2.08;1.98;;;30.00;38.40;;;;;;5014182;28;20226;-60
2022/06/12 12:33:35;;;;;;;2.00;1.90;;;30.10;38.40;;;;;;5022046;28;20199;-61
2022/06/12 12:41:52;;;;;;;2.33;2.17;;;30.20;38.10;;;;;;5013857;28;20226;-60
2022/06/12 12:44:47;;;;;;;8.30;2.75;;;30.50;38.80;;;;;;5007636;28;20232;-60
2022/06/12 12:47:27;;;;;;;3.20;2.25;;;30.50;35.90;;;;;;4990981;28;20585;-61
2022/06/12 12:50:11;;;;;;;2.55;2.33;;;30.60;36.10;;;;;;5014895;28;20176;-61
2022/06/12 12:52:45;;;;;;;5.72;2.20;;;30.70;36.00;;;;;;5009120;28;20187;-60
2022/06/12 12:55:19;;;;;;;2.28;2.08;;;30.70;36.30;;;;;;5009431;28;20180;-61
2022/06/12 12:57:46;;;;;;;2.20;2.10;;;30.80;36.80;;;;;;5012078;28;20732;-60
2022/06/12 13:00:17;;;;;;;8.23;2.33;;;30.90;35.30;;;;;;5018429;28;20646;-61
2022/06/12 13:02:53;;;;;;;2.50;2.33;;;30.90;34.70;;;;;;5005924;28;20194;-61
2022/06/12 13:05:26;;;;;;;3.15;2.20;;;30.80;36.20;;;;;;5009246;28;20181;-60
2022/06/12 13:08:00;;;;;;;1.98;1.85;;;30.90;36.20;;;;;;5005653;28;20226;-61
2022/06/12 13:10:55;;;;;;;1.90;1.80;;;31.10;35.90;;;;;;5005286;28;20228;-61
2022/06/12 13:13:55;;;;;;;5.68;2.08;;;31.20;35.80;;;;;;5030097;28;20180;-60
2022/06/12 13:16:45;;;;;;;3.05;2.03;;;31.30;35.40;;;;;;5015894;28;20184;-61
2022/06/12 13:19:16;;;;;;;2.60;2.33;;;31.40;36.10;;;;;;5011857;28;20185;-61
2022/06/12 13:21:59;;;;;;;2.90;1.90;;;31.50;34.60;;;;;;5028795;28;20340;-60
2022/06/12 13:24:28;;;;;;;2.10;1.90;;;31.60;35.00;;;;;;5028369;28;20284;-61
2022/06/12 13:26:55;;;;;;;2.33;2.05;;;31.70;34.60;;;;;;5008521;28;20198;-61
2022/06/12 13:29:23;;;;;;;2.83;2.38;;;31.90;36.30;;;;;;4998723;28;20246;-61
2022/06/12 13:32:05;;;;;;;2.95;2.22;;;31.90;35.40;;;;;;5000589;28;20537;-61
2022/06/12 13:34:31;;;;;;;2.08;1.98;;;32.00;34.40;;;;;;5012303;28;20172;-61
2022/06/12 13:36:58;;;;;;;3.83;2.28;;;32.20;36.00;;;;;;5003774;28;20220;-61
2022/06/12 13:39:36;;;;;;;4.07;2.10;;;31.90;34.60;;;;;;5008766;28;20176;-61